Time;durP1;ratioP1;P1;durP2;ratioP2;P2;SDS_P1;SDS_P2;PMS_P1;PMS_P2;Temp;Humidity;BMP_temperature;BMP_pressure;BME280_temperature;BME280_humidity;BME280_pressure;Samples;Min_cycle;Max_cycle;Signal;HPM_P1;HPM_P2
2023/04/13 00:03:37;;;;;;;2.87;2.57;;;7.20;99.90;;;;;;2612921;54;20634;-75
2023/04/13 00:09:25;;;;;;;4.20;2.20;;;7.20;99.90;;;;;;2613167;54;20411;-74
2023/04/13 00:18:31;;;;;;;2.90;1.93;;;7.30;99.90;;;;;;2613426;54;20426;-74
2023/04/13 00:21:00;;;;;;;7.50;2.43;;;7.40;99.90;;;;;;2613064;54;20511;-75
2023/04/13 00:26:47;;;;;;;5.03;2.70;;;7.40;99.90;;;;;;2613269;54;20910;-75
2023/04/13 00:32:36;;;;;;;7.10;2.20;;;7.60;99.90;;;;;;2613917;54;20653;-75
2023/04/13 00:38:26;;;;;;;2.40;2.20;;;7.70;99.90;;;;;;2612938;54;20350;-74
2023/04/13 00:44:14;;;;;;;3.33;2.10;;;7.80;99.90;;;;;;2614339;54;20485;-75
2023/04/13 00:50:05;;;;;;;1.70;1.60;;;7.80;99.90;;;;;;2613273;54;20387;-74
2023/04/13 00:55:52;;;;;;;4.63;1.90;;;7.50;99.90;;;;;;2614426;39;21175;-75
2023/04/13 01:01:49;;;;;;;2.57;2.20;;;7.20;99.90;;;;;;2613229;54;20208;-73
2023/04/13 01:08:07;;;;;;;3.53;1.90;;;7.00;99.90;;;;;;2612889;54;20395;-73
2023/04/13 01:23:50;;;;;;;3.23;1.40;;;6.60;99.90;;;;;;2614363;46;20406;-73
2023/04/13 01:29:39;;;;;;;2.47;1.90;;;6.70;99.90;;;;;;2613364;54;21045;-75
2023/04/13 01:35:28;;;;;;;2.70;1.80;;;6.80;99.90;;;;;;2614317;54;20362;-74
2023/04/13 01:41:15;;;;;;;2.77;1.63;;;6.90;99.90;;;;;;2613552;54;20358;-74
2023/04/13 01:53:42;;;;;;;2.03;1.83;;;7.00;99.90;;;;;;2613528;39;20554;-73
2023/04/13 01:59:29;;;;;;;3.27;2.33;;;7.10;99.90;;;;;;2612313;54;20516;-74
2023/04/13 02:05:17;;;;;;;2.67;1.90;;;7.00;99.90;;;;;;2612060;54;20270;-75
2023/04/13 02:11:06;;;;;;;2.80;2.10;;;7.10;99.90;;;;;;2612311;54;20467;-75
2023/04/13 02:16:53;;;;;;;4.00;2.20;;;7.00;99.90;;;;;;2611987;54;20396;-74
2023/04/13 02:23:17;;;;;;;3.07;2.00;;;6.90;99.90;;;;;;2612938;54;20181;-73
2023/04/13 02:26:03;;;;;;;2.40;1.87;;;6.90;99.90;;;;;;2610434;54;20415;-73
2023/04/13 02:31:51;;;;;;;4.53;2.60;;;7.00;99.90;;;;;;2613275;54;20367;-74
2023/04/13 02:37:40;;;;;;;2.80;1.93;;;7.00;99.90;;;;;;2613306;54;20130;-74
2023/04/13 02:43:30;;;;;;;3.93;2.13;;;7.20;99.90;;;;;;2613881;54;20491;-74
2023/04/13 02:49:17;;;;;;;2.60;2.10;;;7.20;99.90;;;;;;2613603;54;20387;-73
2023/04/13 02:55:06;;;;;;;3.23;1.93;;;7.00;99.90;;;;;;2613924;54;20134;-73
2023/04/13 03:00:54;;;;;;;6.53;1.90;;;7.00;99.90;;;;;;2613378;46;20499;-73
2023/04/13 03:06:44;;;;;;;3.27;2.20;;;7.00;99.90;;;;;;2613308;54;20154;-74
2023/04/13 03:12:32;;;;;;;3.93;2.03;;;6.90;99.90;;;;;;2614041;54;20427;-74
2023/04/13 03:18:20;;;;;;;5.43;2.03;;;6.90;99.90;;;;;;2613207;54;20159;-74
2023/04/13 03:21:36;;;;;;;6.20;1.60;;;6.90;99.90;;;;;;2613140;54;20426;-74
2023/04/13 03:24:01;;;;;;;2.30;1.70;;;6.90;99.90;;;;;;2613342;54;20502;-75
2023/04/13 03:29:49;;;;;;;2.53;1.90;;;7.00;99.90;;;;;;2613677;54;20150;-74
2023/04/13 03:35:37;;;;;;;3.60;2.13;;;7.10;99.90;;;;;;2612757;54;20234;-74
2023/04/13 03:41:24;;;;;;;4.43;2.07;;;7.00;99.90;;;;;;2612943;54;20126;-74
2023/04/13 03:47:12;;;;;;;4.13;2.40;;;7.20;99.90;;;;;;2613327;54;20145;-74
2023/04/13 03:53:00;;;;;;;2.87;2.20;;;7.20;99.90;;;;;;2612896;54;20674;-74
2023/04/13 03:58:48;;;;;;;1.80;1.70;;;7.20;99.90;;;;;;2611328;39;20603;-73
2023/04/13 04:04:35;;;;;;;3.60;2.33;;;7.40;99.90;;;;;;2613884;39;20332;-74
2023/04/13 04:10:23;;;;;;;4.23;2.20;;;7.30;99.90;;;;;;2613400;54;20227;-74
2023/04/13 04:16:11;;;;;;;2.93;2.40;;;7.30;99.90;;;;;;2612467;54;20122;-73
2023/04/13 04:26:05;;;;;;;2.67;2.47;;;7.40;99.90;;;;;;2613640;54;20366;-73
2023/04/13 04:31:52;;;;;;;4.90;2.37;;;7.40;99.90;;;;;;2613091;54;20418;-74
2023/04/13 04:37:40;;;;;;;3.40;3.07;;;7.40;99.90;;;;;;2612891;46;20158;-73
2023/04/13 04:43:29;;;;;;;2.80;2.20;;;7.30;99.90;;;;;;2612502;54;20226;-73
2023/04/13 04:49:17;;;;;;;1.70;1.50;;;7.40;99.90;;;;;;2611582;54;20373;-74
2023/04/13 04:55:06;;;;;;;3.33;2.00;;;7.30;99.90;;;;;;2612807;54;20495;-73
2023/04/13 05:00:55;;;;;;;2.63;2.00;;;7.30;99.90;;;;;;2611165;54;20395;-75
2023/04/13 05:06:43;;;;;;;1.80;1.70;;;7.30;99.90;;;;;;2612433;54;20367;-75
2023/04/13 05:12:31;;;;;;;1.93;1.63;;;7.30;99.90;;;;;;2613530;39;20537;-75
2023/04/13 05:18:18;;;;;;;2.17;1.97;;;7.40;99.90;;;;;;2613305;54;20143;-75
2023/04/13 05:24:17;;;;;;;9.00;2.17;;;7.40;99.90;;;;;;2611320;47;20151;-72
2023/04/13 05:30:05;;;;;;;3.10;2.13;;;7.30;99.90;;;;;;2612447;54;20202;-73
2023/04/13 05:35:52;;;;;;;4.07;2.03;;;7.40;99.90;;;;;;2611948;54;20449;-72
2023/04/13 05:41:39;;;;;;;3.10;2.03;;;7.50;99.90;;;;;;2607249;54;20140;-73
2023/04/13 05:47:28;;;;;;;3.40;3.10;;;7.50;99.90;;;;;;2608852;54;20156;-73
2023/04/13 05:53:15;;;;;;;6.20;2.77;;;7.70;99.90;;;;;;2610773;54;20379;-73
2023/04/13 05:59:03;;;;;;;2.60;2.40;;;7.80;99.90;;;;;;2611041;54;20236;-74
2023/04/13 06:04:53;;;;;;;3.73;3.43;;;8.00;99.90;;;;;;2608071;54;20355;-73
2023/04/13 06:10:43;;;;;;;4.70;4.07;;;8.50;99.90;;;;;;2609331;54;20361;-73
2023/04/13 06:16:31;;;;;;;4.43;3.20;;;8.70;99.90;;;;;;2611435;54;20431;-73
2023/04/13 06:26:06;;;;;;;4.90;4.50;;;9.60;99.90;;;;;;2608890;46;20818;-74
2023/04/13 06:31:54;;;;;;;3.17;2.97;;;8.90;99.90;;;;;;2612087;54;20392;-72
2023/04/13 06:37:41;;;;;;;4.77;3.93;;;8.50;99.90;;;;;;2614462;54;20125;-74
2023/04/13 06:43:29;;;;;;;3.63;3.23;;;8.90;99.90;;;;;;2611250;39;20552;-74
2023/04/13 06:49:17;;;;;;;6.97;3.90;;;9.50;99.90;;;;;;2608420;54;20125;-74
2023/04/13 06:55:05;;;;;;;3.87;3.10;;;9.80;99.90;;;;;;2613031;54;20130;-74
2023/04/13 07:00:53;;;;;;;4.87;4.57;;;9.30;99.90;;;;;;2611621;39;20854;-74
2023/04/13 07:06:40;;;;;;;4.60;4.30;;;9.10;99.90;;;;;;2608988;54;20174;-73
2023/04/13 07:12:28;;;;;;;8.70;5.33;;;8.90;99.90;;;;;;2607286;54;20126;-74
2023/04/13 07:18:16;;;;;;;4.43;4.07;;;9.20;99.90;;;;;;2612976;54;20166;-75
2023/04/13 07:21:33;;;;;;;4.40;4.10;;;9.20;99.90;;;;;;2614254;54;20403;-74
2023/04/13 07:23:59;;;;;;;4.90;4.50;;;9.20;99.90;;;;;;2613844;54;20847;-74
2023/04/13 07:29:49;;;;;;;5.07;4.67;;;9.40;99.90;;;;;;2610391;54;20126;-74
2023/04/13 07:35:37;;;;;;;5.40;4.83;;;9.80;99.90;;;;;;2608643;54;20367;-74
2023/04/13 07:41:25;;;;;;;6.10;5.50;;;9.80;99.90;;;;;;2610342;54;20402;-75
2023/04/13 07:47:13;;;;;;;4.83;4.50;;;9.60;99.90;;;;;;2611348;54;20660;-74
2023/04/13 07:53:01;;;;;;;5.73;5.20;;;9.80;99.90;;;;;;2609672;54;20234;-74
2023/04/13 07:58:49;;;;;;;4.87;4.47;;;8.90;99.90;;;;;;2609692;54;20125;-74
2023/04/13 08:01:53;;;;;;;4.30;4.00;;;9.00;99.90;;;;;;2609481;54;20442;-74
2023/04/13 08:04:18;;;;;;;4.30;4.00;;;8.90;99.90;;;;;;2611903;54;20423;-74
2023/04/13 08:10:07;;;;;;;5.00;4.60;;;8.90;99.90;;;;;;2609530;54;20134;-74
2023/04/13 08:15:56;;;;;;;4.90;3.77;;;9.10;99.90;;;;;;2613015;54;20370;-74
2023/04/13 08:26:04;;;;;;;9.73;4.90;;;9.50;99.90;;;;;;2609169;54;20390;-74
2023/04/13 08:31:52;;;;;;;4.93;4.43;;;9.30;99.90;;;;;;2610134;54;20359;-75
2023/04/13 08:37:40;;;;;;;4.33;3.97;;;9.20;99.90;;;;;;2613157;54;20443;-74
2023/04/13 08:43:29;;;;;;;4.87;4.47;;;9.10;99.90;;;;;;2613274;54;20420;-73
2023/04/13 08:49:17;;;;;;;4.33;4.03;;;9.10;99.90;;;;;;2607780;54;20383;-74
2023/04/13 08:55:05;;;;;;;4.33;3.97;;;9.40;99.90;;;;;;2613334;54;20342;-74
2023/04/13 09:00:55;;;;;;;4.80;4.30;;;9.40;99.90;;;;;;2612959;54;20154;-74
2023/04/13 09:06:49;;;;;;;4.93;4.43;;;9.30;99.90;;;;;;2612850;54;20368;-73
2023/04/13 09:12:38;;;;;;;5.83;5.27;;;9.20;99.90;;;;;;2611401;54;20518;-74
2023/04/13 09:18:27;;;;;;;4.67;4.30;;;9.40;99.90;;;;;;2609545;54;20926;-75
2023/04/13 09:21:31;;;;;;;6.40;5.37;;;9.40;99.90;;;;;;2610688;54;20507;-74
2023/04/13 09:23:58;;;;;;;4.90;4.43;;;9.30;99.90;;;;;;2608951;54;20502;-76
2023/04/13 09:29:50;;;;;;;6.47;5.97;;;9.50;99.90;;;;;;2609829;39;20757;-74
2023/04/13 09:35:38;;;;;;;4.77;4.37;;;9.50;99.90;;;;;;2610886;39;20793;-74
2023/04/13 09:41:37;;;;;;;9.80;6.07;;;9.90;99.90;;;;;;2610878;54;20130;-75
2023/04/13 09:53:59;;;;;;;7.70;6.90;;;11.80;93.30;;;;;;2605899;54;20410;-74
2023/04/13 09:59:47;;;;;;;7.97;7.27;;;11.70;87.80;;;;;;2606727;54;20418;-74
2023/04/13 10:05:36;;;;;;;9.60;7.40;;;11.40;88.70;;;;;;2608966;39;20688;-74
2023/04/13 10:11:25;;;;;;;6.47;6.17;;;10.60;93.40;;;;;;2609146;54;20520;-74
2023/04/13 10:17:15;;;;;;;7.37;6.67;;;10.50;95.30;;;;;;2606359;54;20447;-74
2023/04/13 10:26:33;;;;;;;7.33;6.63;;;10.70;90.40;;;;;;2607668;54;20395;-73
2023/04/13 10:32:26;;;;;;;7.60;6.90;;;10.60;85.40;;;;;;2611140;54;20577;-74
2023/04/13 10:38:14;;;;;;;8.37;7.67;;;10.70;77.00;;;;;;2611206;54;20411;-74
2023/04/13 10:44:05;;;;;;;7.83;7.23;;;10.60;84.60;;;;;;2612298;54;20367;-74
2023/04/13 10:49:52;;;;;;;7.90;7.40;;;10.60;83.80;;;;;;2606897;54;20426;-74
2023/04/13 10:55:40;;;;;;;7.93;7.13;;;10.50;86.60;;;;;;2613493;54;20129;-73
2023/04/13 11:01:30;;;;;;;8.10;6.87;;;10.90;84.90;;;;;;2612177;54;20653;-73
2023/04/13 11:07:22;;;;;;;10.67;7.47;;;10.80;81.10;;;;;;2612064;54;20412;-73
2023/04/13 11:13:10;;;;;;;8.30;7.53;;;11.70;69.20;;;;;;2614314;54;20435;-74
2023/04/13 11:19:04;;;;;;;14.20;9.50;;;12.50;41.80;;;;;;2610861;54;20150;-74
2023/04/13 11:25:10;;;;;;;9.77;9.00;;;11.70;45.40;;;;;;2609615;54;20450;-73
2023/04/13 11:31:00;;;;;;;9.10;8.30;;;11.80;40.80;;;;;;2612261;54;20435;-74
2023/04/13 11:36:49;;;;;;;9.20;8.50;;;11.60;36.00;;;;;;2612181;54;20861;-74
2023/04/13 11:42:46;;;;;;;9.97;9.07;;;11.90;38.00;;;;;;2612761;54;20451;-73
2023/04/13 11:48:33;;;;;;;9.67;8.83;;;12.00;36.80;;;;;;2613280;54;20408;-73
2023/04/13 11:54:22;;;;;;;10.40;9.50;;;11.90;35.30;;;;;;2613583;54;20142;-75
2023/04/13 12:00:17;;;;;;;9.40;8.80;;;12.30;29.80;;;;;;2611652;54;20386;-74
2023/04/13 12:06:05;;;;;;;10.37;9.67;;;11.90;24.70;;;;;;2612120;54;20410;-72
2023/04/13 12:11:53;;;;;;;11.23;10.33;;;12.40;21.50;;;;;;2610818;54;20429;-73
2023/04/13 12:17:41;;;;;;;10.63;10.00;;;12.20;19.30;;;;;;2611618;39;20873;-73
2023/04/13 12:26:51;;;;;;;10.80;9.90;;;13.40;11.40;;;;;;2609237;54;20407;-73
2023/04/13 12:32:40;;;;;;;10.17;9.40;;;13.90;1.70;;;;;;2611869;54;20174;-74
2023/04/13 12:38:28;;;;;;;10.60;9.93;;;13.80;1.00;;;;;;2612790;54;20387;-73
2023/04/13 12:44:16;;;;;;;10.47;9.77;;;13.20;1.10;;;;;;2610380;54;20138;-74
2023/04/13 12:50:05;;;;;;;11.10;10.50;;;14.60;1.00;;;;;;2610827;54;20239;-74
2023/04/13 12:55:53;;;;;;;11.20;10.50;;;15.10;1.00;;;;;;2613156;54;20474;-73
2023/04/13 13:01:40;;;;;;;11.60;10.90;;;14.10;1.00;;;;;;2612821;39;20661;-74
2023/04/13 13:07:28;;;;;;;11.07;10.27;;;14.00;1.00;;;;;;2612742;39;20502;-74
2023/04/13 13:13:17;;;;;;;13.97;11.30;;;14.70;1.00;;;;;;2613462;54;20661;-73
2023/04/13 13:19:05;;;;;;;11.80;10.80;;;13.70;1.00;;;;;;2611765;54;20367;-73
2023/04/13 13:22:20;;;;;;;13.07;12.20;;;14.00;1.00;;;;;;2614055;54;20538;-74
2023/04/13 13:24:45;;;;;;;11.63;10.50;;;13.40;1.00;;;;;;2611234;54;20153;-74
2023/04/13 13:30:37;;;;;;;11.50;10.50;;;15.00;1.00;;;;;;2612833;54;20174;-74
2023/04/13 13:33:36;;;;;;;12.10;11.13;;;14.20;1.00;;;;;;2613333;54;20383;-74
2023/04/13 13:36:02;;;;;;;11.27;10.47;;;14.10;1.00;;;;;;2612178;54;20407;-74
2023/04/13 13:41:50;;;;;;;12.07;11.30;;;13.90;1.00;;;;;;2611280;54;20223;-73
2023/04/13 13:47:38;;;;;;;12.60;11.80;;;14.90;1.00;;;;;;2612397;54;20395;-72
2023/04/13 13:53:25;;;;;;;11.23;10.53;;;15.70;1.00;;;;;;2613888;54;20158;-75
2023/04/13 13:56:29;;;;;;;11.70;10.90;;;16.30;1.00;;;;;;2611265;39;20892;-75
2023/04/13 13:58:55;;;;;;;13.47;12.57;;;16.10;1.00;;;;;;2612747;39;20588;-75
2023/04/13 14:04:43;;;;;;;13.43;11.37;;;16.10;1.00;;;;;;2612331;54;20130;-73
2023/04/13 14:10:31;;;;;;;13.33;12.50;;;14.70;1.00;;;;;;2613066;54;20395;-75
2023/04/13 14:16:21;;;;;;;13.40;12.60;;;16.00;1.00;;;;;;2612269;54;20166;-74
2023/04/13 14:22:10;;;;;;;14.53;13.60;;;16.80;1.00;;;;;;2611122;54;20855;-75
2023/04/13 14:27:57;;;;;;;12.57;11.60;;;15.00;1.00;;;;;;2611520;54;20411;-74
2023/04/13 14:33:45;;;;;;;13.30;12.60;;;14.50;1.00;;;;;;2613664;54;20150;-74
2023/04/13 14:39:33;;;;;;;14.30;13.20;;;16.40;1.00;;;;;;2614397;54;20126;-75
2023/04/13 14:45:21;;;;;;;14.10;12.90;;;15.10;1.00;;;;;;2614218;54;20230;-73
2023/04/13 14:51:15;;;;;;;14.20;12.73;;;15.20;1.00;;;;;;2614886;39;20517;-74
2023/04/13 14:57:03;;;;;;;12.10;11.40;;;15.70;1.00;;;;;;2612934;54;20439;-75
2023/04/13 15:02:51;;;;;;;13.20;12.50;;;15.80;1.00;;;;;;2614291;54;20162;-74
2023/04/13 15:08:39;;;;;;;13.97;13.07;;;14.50;1.00;;;;;;2612091;54;20182;-74
2023/04/13 15:14:26;;;;;;;11.93;11.03;;;15.10;1.00;;;;;;2614836;39;20570;-74
2023/04/13 15:20:15;;;;;;;12.63;11.93;;;15.00;1.00;;;;;;2614273;54;20157;-74
2023/04/13 15:29:24;;;;;;;14.10;13.10;;;15.40;1.00;;;;;;2614025;54;20894;-74
2023/04/13 15:35:12;;;;;;;14.70;13.27;;;14.80;1.00;;;;;;2612961;54;20138;-73
2023/04/13 15:41:00;;;;;;;12.50;11.90;;;15.20;1.00;;;;;;2613881;54;20945;-74
2023/04/13 15:46:47;;;;;;;13.57;12.30;;;14.70;1.00;;;;;;2613759;39;20522;-74
2023/04/13 15:52:38;;;;;;;13.23;12.10;;;15.20;1.00;;;;;;2612850;54;20126;-73
2023/04/13 15:58:25;;;;;;;13.93;13.13;;;14.50;1.00;;;;;;2613331;54;20476;-74
2023/04/13 16:04:14;;;;;;;13.70;12.50;;;14.20;1.00;;;;;;2609111;54;20624;-75
2023/04/13 16:10:01;;;;;;;11.70;11.03;;;14.20;1.00;;;;;;2607854;54;20665;-74
2023/04/13 16:15:57;;;;;;;12.87;12.17;;;14.50;1.00;;;;;;2610948;54;20162;-74
2023/04/13 16:21:45;;;;;;;11.63;11.13;;;14.50;1.00;;;;;;2608769;54;20577;-74
2023/04/13 16:24:51;;;;;;;12.37;11.47;;;14.70;1.00;;;;;;2610749;54;20407;-74
2023/04/13 16:27:16;;;;;;;13.37;12.20;;;14.60;1.00;;;;;;2611051;47;20420;-74
2023/04/13 16:33:04;;;;;;;11.20;10.60;;;15.10;1.00;;;;;;2610950;54;20122;-75
2023/04/13 16:38:52;;;;;;;13.30;12.30;;;14.70;1.00;;;;;;2609906;39;20649;-74
2023/04/13 16:44:40;;;;;;;12.70;11.80;;;14.20;1.00;;;;;;2610001;54;21067;-74
2023/04/13 16:50:28;;;;;;;13.53;12.53;;;14.30;1.00;;;;;;2609583;54;20152;-74
2023/04/13 16:56:18;;;;;;;14.10;13.00;;;14.10;1.00;;;;;;2609923;54;20528;-74
2023/04/13 17:02:06;;;;;;;13.33;12.53;;;15.00;1.00;;;;;;2609788;39;20753;-74
2023/04/13 17:07:54;;;;;;;14.37;13.07;;;14.50;1.00;;;;;;2607449;54;20387;-73
2023/04/13 17:13:42;;;;;;;12.30;11.60;;;14.00;1.00;;;;;;2609292;54;20371;-73
2023/04/13 17:19:30;;;;;;;12.87;12.23;;;13.70;1.00;;;;;;2606991;54;20126;-74
2023/04/13 17:29:23;;;;;;;11.27;10.70;;;13.50;1.00;;;;;;2606396;54;20410;-73
2023/04/13 17:35:10;;;;;;;13.03;12.07;;;13.30;1.00;;;;;;2607513;54;20367;-73
2023/04/13 17:40:58;;;;;;;13.00;12.20;;;13.10;1.00;;;;;;2607750;39;20656;-74
2023/04/13 17:46:47;;;;;;;14.03;13.13;;;13.00;1.00;;;;;;2607851;54;20139;-74
2023/04/13 17:52:35;;;;;;;13.60;12.30;;;12.70;1.00;;;;;;2607166;54;20409;-73
2023/04/13 17:58:23;;;;;;;14.37;13.50;;;12.40;1.00;;;;;;2610607;54;20126;-74
2023/04/13 18:04:12;;;;;;;13.40;12.53;;;12.20;1.00;;;;;;2608941;54;20154;-74
2023/04/13 18:10:00;;;;;;;13.47;12.50;;;12.10;1.00;;;;;;2609306;54;20347;-73
2023/04/13 18:15:49;;;;;;;14.13;12.90;;;11.80;1.00;;;;;;2608964;54;21160;-74
2023/04/13 18:21:36;;;;;;;13.37;12.30;;;11.30;1.00;;;;;;2608580;39;20838;-74
2023/04/13 18:24:50;;;;;;;13.67;12.80;;;11.20;1.00;;;;;;2607169;54;22421;-74
2023/04/13 18:27:16;;;;;;;12.47;11.67;;;11.20;1.00;;;;;;2605035;54;20159;-76
2023/04/13 18:33:04;;;;;;;14.47;13.23;;;11.00;1.00;;;;;;2608767;54;20135;-74
2023/04/13 18:38:53;;;;;;;20.70;19.23;;;11.00;1.00;;;;;;2610832;54;20150;-72
2023/04/13 18:44:41;;;;;;;12.23;11.43;;;11.30;1.00;;;;;;2611466;54;20386;-73
2023/04/13 18:50:29;;;;;;;13.03;12.23;;;11.70;1.00;;;;;;2609248;54;20170;-75
2023/04/13 18:56:16;;;;;;;13.07;12.27;;;11.70;1.00;;;;;;2609078;54;20193;-74
2023/04/13 19:02:04;;;;;;;11.80;10.83;;;11.60;1.00;;;;;;2610286;54;20134;-73
2023/04/13 19:07:57;;;;;;;10.83;9.93;;;11.30;1.00;;;;;;2609372;54;20706;-75
2023/04/13 19:13:46;;;;;;;11.60;11.00;;;11.10;1.00;;;;;;2608706;54;20432;-75
2023/04/13 19:19:34;;;;;;;11.23;10.63;;;10.90;1.00;;;;;;2609777;54;20413;-75
2023/04/13 19:29:28;;;;;;;14.30;13.40;;;10.40;1.00;;;;;;2611169;54;20411;-74
2023/04/13 19:35:16;;;;;;;13.10;12.30;;;9.90;2.20;;;;;;2611949;54;20394;-74
2023/04/13 19:41:04;;;;;;;11.40;10.87;;;9.30;12.80;;;;;;2611344;54;20411;-75
2023/04/13 19:46:52;;;;;;;12.63;11.80;;;8.90;22.60;;;;;;2611337;54;20126;-74
2023/04/13 19:52:40;;;;;;;12.17;11.27;;;8.60;26.20;;;;;;2611551;39;20345;-75
2023/04/13 19:58:28;;;;;;;13.70;12.70;;;8.30;44.70;;;;;;2612944;54;20522;-75
2023/04/13 20:04:16;;;;;;;10.67;9.97;;;7.90;57.10;;;;;;2614707;31;20617;-74
2023/04/13 20:10:06;;;;;;;12.53;11.63;;;7.60;76.20;;;;;;2612232;54;20375;-73
2023/04/13 20:15:54;;;;;;;13.37;12.57;;;7.40;91.10;;;;;;2612653;54;20354;-73
2023/04/13 20:21:43;;;;;;;11.73;10.80;;;7.70;94.20;;;;;;2610470;54;20153;-73
2023/04/13 20:24:49;;;;;;;11.83;11.00;;;7.60;97.40;;;;;;2609483;54;20982;-74
2023/04/13 20:27:14;;;;;;;11.07;10.07;;;7.50;99.70;;;;;;2608556;54;23353;-74
2023/04/13 20:33:02;;;;;;;10.77;10.17;;;7.40;99.90;;;;;;2611435;54;20254;-74
2023/04/13 20:38:58;;;;;;;11.80;10.70;;;7.20;99.90;;;;;;2612255;54;20723;-73
2023/04/13 20:44:46;;;;;;;11.30;10.20;;;6.90;99.90;;;;;;2613430;31;20864;-74
2023/04/13 20:50:33;;;;;;;15.30;13.70;;;6.90;99.90;;;;;;2612251;54;20494;-73
2023/04/13 20:56:22;;;;;;;10.40;9.70;;;6.80;99.90;;;;;;2613716;54;20175;-73
2023/04/13 21:02:10;;;;;;;9.97;9.20;;;7.00;99.90;;;;;;2614163;54;20402;-74
2023/04/13 21:07:58;;;;;;;11.00;10.30;;;7.10;99.90;;;;;;2611603;54;20407;-73
2023/04/13 21:13:46;;;;;;;11.70;10.60;;;7.30;99.90;;;;;;2609309;54;20126;-74
2023/04/13 21:19:33;;;;;;;11.77;10.90;;;7.40;94.60;;;;;;2612420;54;20139;-74
2023/04/13 21:29:23;;;;;;;10.80;9.87;;;7.30;96.30;;;;;;2611569;54;20367;-72
2023/04/13 21:35:11;;;;;;;10.87;9.87;;;7.20;99.90;;;;;;2612652;54;20382;-74
2023/04/13 21:40:58;;;;;;;13.17;11.57;;;7.30;99.90;;;;;;2611697;54;20217;-75
2023/04/13 21:46:46;;;;;;;10.40;9.50;;;7.50;97.70;;;;;;2612589;54;20134;-74
2023/04/13 21:52:34;;;;;;;10.40;9.57;;;7.70;94.50;;;;;;2611006;54;20114;-75
2023/04/13 21:58:21;;;;;;;10.53;9.30;;;7.60;93.40;;;;;;2611156;54;20146;-75
2023/04/13 22:04:11;;;;;;;10.03;9.23;;;7.60;96.40;;;;;;2612882;54;20621;-74
2023/04/13 22:09:58;;;;;;;9.50;8.67;;;7.60;97.30;;;;;;2614429;54;20391;-73
2023/04/13 22:15:46;;;;;;;10.10;9.30;;;7.80;98.20;;;;;;2614560;31;20659;-73
2023/04/13 22:21:35;;;;;;;9.20;8.50;;;7.90;99.20;;;;;;2612564;54;21085;-73
2023/04/13 22:24:52;;;;;;;9.40;8.60;;;7.70;99.90;;;;;;2612603;47;20423;-73
2023/04/13 22:27:17;;;;;;;9.40;8.50;;;7.80;99.90;;;;;;2609129;47;20922;-73
2023/04/13 22:33:05;;;;;;;10.50;9.00;;;7.60;99.90;;;;;;2613849;54;20213;-74
2023/04/13 22:38:53;;;;;;;9.83;8.90;;;7.50;99.90;;;;;;2612312;54;20133;-74
2023/04/13 22:44:41;;;;;;;9.67;8.80;;;7.30;99.90;;;;;;2612361;54;20491;-75
2023/04/13 22:50:29;;;;;;;8.83;8.03;;;7.10;99.90;;;;;;2611083;54;20147;-75
2023/04/13 22:56:17;;;;;;;8.87;8.07;;;6.90;99.90;;;;;;2612872;54;20150;-74
2023/04/13 23:02:05;;;;;;;12.90;8.43;;;6.70;99.90;;;;;;2613495;54;20126;-73
2023/04/13 23:07:52;;;;;;;8.60;7.70;;;6.30;99.90;;;;;;2612918;54;20122;-75
2023/04/13 23:13:40;;;;;;;8.20;7.50;;;6.30;99.90;;;;;;2612458;54;20114;-74
2023/04/13 23:19:28;;;;;;;10.80;7.80;;;5.90;99.90;;;;;;2612842;54;20114;-74
2023/04/13 23:35:30;;;;;;;8.10;7.10;;;5.30;99.90;;;;;;2610742;54;20537;-73
2023/04/13 23:41:16;;;;;;;8.30;7.07;;;5.40;99.90;;;;;;2609098;39;20575;-74
2023/04/13 23:47:04;;;;;;;10.07;6.40;;;5.10;99.90;;;;;;2610029;54;20139;-74
2023/04/13 23:52:51;;;;;;;7.03;6.43;;;5.10;99.90;;;;;;2611120;39;20767;-75
2023/04/13 23:58:39;;;;;;;8.37;6.93;;;4.90;99.90;;;;;;2610420;54;20158;-75
